createdAt,value
2022-12-17T00:00:49.984Z,15.63
2022-12-17T00:03:17.485Z,14.00
2022-12-17T00:05:44.868Z,13.23
2022-12-17T00:08:12.115Z,13.87
2022-12-17T00:10:41.103Z,13.67
2022-12-17T00:13:18.191Z,12.13
2022-12-17T00:15:50.856Z,14.33
2022-12-17T00:18:22.014Z,13.37
2022-12-17T00:20:53.446Z,13.27
2022-12-17T00:23:21.025Z,14.63
2022-12-17T00:25:51.975Z,10.10
2022-12-17T00:28:19.231Z,12.00
2022-12-17T00:30:51.062Z,11.23
2022-12-17T00:33:19.580Z,10.30
2022-12-17T00:35:51.336Z,12.47
2022-12-17T00:38:19.317Z,10.23
2022-12-17T00:40:52.124Z,10.57
2022-12-17T00:43:19.530Z,11.53
2022-12-17T00:45:48.973Z,9.50
2022-12-17T00:48:35.164Z,14.03
2022-12-17T00:51:02.756Z,11.60
2022-12-17T00:53:30.062Z,13.07
2022-12-17T00:55:58.618Z,11.63
2022-12-17T00:58:31.726Z,15.40
2022-12-17T01:01:17.837Z,10.50
2022-12-17T01:03:57.758Z,10.13
2022-12-17T01:06:25.082Z,9.83
2022-12-17T01:08:52.328Z,12.50
2022-12-17T01:11:20.906Z,13.97
2022-12-17T01:13:48.239Z,12.47
2022-12-17T01:16:15.780Z,11.30
2022-12-17T01:18:43.234Z,13.67
2022-12-17T01:21:10.450Z,16.27
2022-12-17T01:23:38.386Z,12.23
2022-12-17T01:26:06.060Z,12.23
2022-12-17T01:28:34.710Z,16.83
2022-12-17T01:31:01.956Z,14.63
2022-12-17T01:33:29.272Z,13.33
2022-12-17T01:35:57.001Z,15.60
2022-12-17T01:38:30.412Z,11.07
2022-12-17T01:40:57.655Z,12.13
2022-12-17T01:43:39.153Z,11.73
2022-12-17T01:46:11.813Z,13.47
2022-12-17T01:48:57.834Z,13.80
2022-12-17T01:51:32.485Z,13.03
2022-12-17T01:54:07.024Z,9.73
2022-12-17T01:56:34.786Z,11.10
2022-12-17T01:59:03.683Z,10.83
2022-12-17T02:01:31.064Z,11.37
2022-12-17T02:03:58.566Z,10.13
2022-12-17T02:06:26.908Z,11.93
2022-12-17T02:09:01.476Z,13.00
2022-12-17T02:11:36.640Z,11.37
2022-12-17T02:14:09.637Z,9.87
2022-12-17T02:16:39.299Z,12.47
2022-12-17T02:19:12.362Z,14.53
2022-12-17T02:21:40.199Z,10.87
2022-12-17T02:27:42.118Z,11.80
2022-12-17T02:30:10.376Z,9.87
2022-12-17T02:32:39.465Z,12.67
2022-12-17T02:35:11.010Z,9.83
2022-12-17T02:37:38.870Z,9.70
2022-12-17T02:40:06.692Z,10.27
2022-12-17T02:43:00.151Z,16.17
2022-12-17T02:45:30.979Z,11.03
2022-12-17T02:47:58.685Z,11.17
2022-12-17T02:50:26.056Z,10.63
2022-12-17T02:59:26.002Z,13.07
2022-12-17T03:01:55.371Z,12.30
2022-12-17T03:04:24.177Z,9.20
2022-12-17T03:06:51.411Z,10.40
2022-12-17T03:09:18.716Z,9.57
2022-12-17T03:11:58.308Z,11.87
2022-12-17T03:14:25.530Z,11.50
2022-12-17T03:16:52.905Z,10.57
2022-12-17T03:19:23.074Z,14.53
2022-12-17T03:21:56.472Z,10.37
2022-12-17T03:24:52.183Z,13.53
2022-12-17T03:27:35.393Z,10.20
2022-12-17T03:30:02.892Z,10.47
2022-12-17T03:32:30.091Z,11.27
2022-12-17T03:34:58.710Z,10.47
2022-12-17T03:37:26.051Z,12.80
2022-12-17T03:39:53.351Z,12.33
2022-12-17T03:42:20.594Z,20.30
2022-12-17T03:44:47.809Z,11.40
2022-12-17T03:47:15.076Z,11.57
2022-12-17T03:49:42.307Z,10.40
2022-12-17T03:52:10.914Z,11.67
2022-12-17T03:54:38.163Z,9.33
2022-12-17T03:57:20.578Z,14.60
2022-12-17T03:59:47.821Z,30.17
2022-12-17T04:02:15.147Z,11.17
2022-12-17T04:04:42.599Z,13.43
2022-12-17T04:07:32.288Z,15.80
2022-12-17T04:13:20.728Z,13.60
2022-12-17T04:15:48.182Z,12.27
2022-12-17T04:18:15.427Z,13.37
2022-12-17T04:20:42.665Z,13.50
2022-12-17T04:23:09.884Z,13.20
2022-12-17T04:25:49.290Z,13.47
2022-12-17T04:28:16.564Z,12.30
2022-12-17T04:30:45.450Z,13.60
2022-12-17T04:33:12.696Z,14.43
2022-12-17T04:35:52.439Z,11.87
2022-12-17T04:38:53.873Z,12.60
2022-12-17T04:41:35.556Z,11.97
2022-12-17T04:44:03.635Z,17.53
2022-12-17T04:46:32.513Z,14.80
2022-12-17T04:49:00.030Z,14.00
2022-12-17T04:51:27.442Z,13.80
2022-12-17T04:53:54.667Z,14.60
2022-12-17T04:56:25.195Z,12.47
2022-12-17T04:58:52.643Z,13.67
2022-12-17T05:01:20.751Z,10.80
2022-12-17T05:03:49.459Z,10.67
2022-12-17T05:09:32.718Z,13.80
2022-12-17T05:12:00.220Z,14.37
2022-12-17T05:14:27.442Z,14.93
2022-12-17T05:16:56.195Z,14.47
2022-12-17T05:19:25.183Z,15.40
2022-12-17T05:21:52.392Z,11.23
2022-12-17T05:24:19.683Z,9.77
2022-12-17T05:26:46.902Z,15.73
2022-12-17T05:29:16.151Z,15.00
2022-12-17T05:31:43.704Z,16.20
2022-12-17T05:34:10.949Z,16.23
2022-12-17T05:36:39.489Z,17.67
2022-12-17T05:39:06.930Z,20.53
2022-12-17T05:41:34.674Z,17.40
2022-12-17T05:44:02.043Z,15.27
2022-12-17T05:46:29.836Z,15.37
2022-12-17T05:48:57.195Z,16.53
2022-12-17T05:51:38.861Z,16.50
2022-12-17T05:54:20.401Z,16.93
2022-12-17T05:56:47.724Z,16.90
2022-12-17T05:59:14.912Z,16.53
2022-12-17T06:02:05.346Z,10.30
2022-12-17T06:04:32.805Z,18.03
2022-12-17T06:07:01.216Z,15.57
2022-12-17T06:09:29.853Z,16.33
2022-12-17T06:12:02.424Z,16.10
2022-12-17T06:14:30.165Z,12.87
2022-12-17T06:17:02.621Z,20.00
2022-12-17T06:19:30.061Z,16.83
2022-12-17T06:21:57.487Z,17.83
2022-12-17T06:24:32.014Z,23.03
2022-12-17T06:27:08.369Z,18.23
2022-12-17T06:29:35.552Z,13.90
2022-12-17T06:32:21.340Z,12.97
2022-12-17T06:34:48.679Z,18.57
2022-12-17T06:37:17.107Z,17.33
2022-12-17T06:39:51.391Z,17.07
2022-12-17T06:42:19.028Z,15.53
2022-12-17T06:44:52.027Z,18.63
2022-12-17T06:47:19.674Z,18.50
2022-12-17T06:49:46.958Z,15.37
2022-12-17T06:52:14.261Z,21.93
2022-12-17T06:54:55.270Z,17.93
2022-12-17T06:57:22.653Z,18.63
2022-12-17T06:59:49.899Z,18.40
2022-12-17T07:02:18.243Z,20.60
2022-12-17T07:04:54.723Z,19.43
2022-12-17T07:07:43.935Z,21.03
2022-12-17T07:10:16.236Z,19.73
2022-12-17T07:12:43.508Z,17.87
2022-12-17T07:15:10.931Z,23.57
2022-12-17T07:17:38.194Z,20.90
2022-12-17T07:20:06.028Z,17.83
2022-12-17T07:22:35.846Z,18.40
2022-12-17T07:25:19.588Z,19.77
2022-12-17T07:27:53.163Z,19.07
2022-12-17T07:30:20.416Z,18.43
2022-12-17T07:32:47.630Z,22.47
2022-12-17T07:35:34.996Z,19.27
2022-12-17T07:38:28.967Z,21.27
2022-12-17T07:40:59.123Z,21.10
2022-12-17T07:43:26.341Z,24.87
2022-12-17T07:45:53.667Z,19.33
2022-12-17T07:48:20.962Z,22.53
2022-12-17T07:50:49.322Z,22.13
2022-12-17T07:53:29.242Z,23.43
2022-12-17T07:55:58.519Z,23.57
2022-12-17T07:58:25.776Z,20.90
2022-12-17T08:00:53.128Z,17.37
2022-12-17T08:06:14.244Z,17.90
2022-12-17T08:08:53.664Z,20.80
2022-12-17T08:11:23.397Z,20.00
2022-12-17T08:13:55.909Z,18.20
2022-12-17T08:16:23.319Z,20.90
2022-12-17T08:18:59.947Z,22.67
2022-12-17T08:21:33.456Z,19.40
2022-12-17T08:24:00.964Z,24.20
2022-12-17T08:26:30.902Z,20.53
2022-12-17T08:28:58.130Z,21.23
2022-12-17T08:31:25.418Z,14.17
2022-12-17T08:33:53.867Z,16.87
2022-12-17T08:36:22.510Z,19.80
2022-12-17T08:38:49.839Z,11.30
2022-12-17T08:41:17.094Z,14.87
2022-12-17T08:43:45.906Z,20.43
2022-12-17T08:46:13.801Z,19.07
2022-12-17T08:48:41.170Z,29.10
2022-12-17T08:51:11.350Z,19.90
2022-12-17T08:56:27.888Z,24.80
2022-12-17T08:58:59.267Z,17.63
2022-12-17T09:01:26.915Z,20.33
2022-12-17T09:03:54.205Z,17.90
2022-12-17T09:06:21.429Z,19.00
2022-12-17T09:15:35.405Z,14.70
2022-12-17T09:18:02.643Z,21.90
2022-12-17T09:20:29.924Z,21.23
2022-12-17T09:22:57.326Z,23.37
2022-12-17T09:25:24.680Z,20.53
2022-12-17T09:28:04.440Z,22.40
2022-12-17T09:30:31.717Z,25.57
2022-12-17T09:33:00.359Z,21.13
2022-12-17T09:35:27.622Z,12.53
2022-12-17T09:38:04.380Z,20.93
2022-12-17T09:40:53.404Z,16.03
2022-12-17T09:43:40.810Z,18.20
2022-12-17T09:46:13.208Z,22.00
2022-12-17T09:48:47.530Z,19.30
2022-12-17T09:51:20.572Z,21.33
2022-12-17T09:53:49.521Z,19.50
2022-12-17T09:56:22.087Z,22.80
2022-12-17T09:58:49.565Z,20.33
2022-12-17T10:01:18.128Z,20.83
2022-12-17T10:03:47.920Z,18.17
2022-12-17T10:06:22.624Z,23.07
2022-12-17T10:08:51.762Z,26.20
2022-12-17T10:11:20.549Z,22.03
2022-12-17T10:13:53.187Z,22.73
2022-12-17T10:16:25.946Z,16.03
2022-12-17T10:18:54.609Z,16.80
2022-12-17T10:21:24.268Z,25.07
2022-12-17T10:24:18.449Z,21.70
2022-12-17T10:27:11.010Z,20.43
2022-12-17T10:29:45.522Z,19.37
2022-12-17T10:32:20.208Z,16.63
2022-12-17T10:34:48.981Z,17.27
2022-12-17T10:37:19.561Z,17.17
2022-12-17T10:39:54.747Z,20.37
2022-12-17T10:42:23.398Z,20.50
2022-12-17T10:44:50.641Z,16.03
2022-12-17T10:47:19.014Z,20.57
2022-12-17T10:49:46.216Z,21.30
2022-12-17T10:52:23.951Z,22.10
2022-12-17T10:54:58.465Z,23.53
2022-12-17T10:57:30.244Z,12.97
2022-12-17T10:59:57.478Z,22.37
2022-12-17T11:02:27.747Z,14.57
2022-12-17T11:04:55.313Z,18.27
2022-12-17T11:07:25.566Z,23.13
2022-12-17T11:09:54.061Z,18.63
2022-12-17T11:12:28.641Z,20.17
2022-12-17T11:14:59.941Z,21.63
2022-12-17T11:17:27.620Z,22.00
2022-12-17T11:19:57.421Z,21.10
2022-12-17T11:22:29.805Z,24.73
2022-12-17T11:24:59.915Z,18.63
2022-12-17T11:27:29.594Z,21.23
2022-12-17T11:29:56.972Z,19.87
2022-12-17T11:32:36.929Z,21.23
2022-12-17T11:35:06.199Z,18.37
2022-12-17T11:37:38.592Z,18.73
2022-12-17T11:40:15.617Z,18.57
2022-12-17T11:42:44.801Z,20.60
2022-12-17T11:45:20.622Z,21.17
2022-12-17T11:47:58.925Z,19.03
2022-12-17T11:50:29.027Z,16.37
2022-12-17T11:53:02.653Z,17.77
2022-12-17T11:55:35.400Z,15.63
2022-12-17T11:58:04.897Z,18.53
2022-12-17T12:00:34.933Z,19.57
2022-12-17T12:03:09.814Z,16.33
2022-12-17T12:05:42.872Z,18.07
2022-12-17T12:08:18.927Z,16.77
2022-12-17T12:10:48.964Z,20.10
2022-12-17T12:13:19.691Z,19.80
2022-12-17T12:15:52.906Z,19.93
2022-12-17T12:18:25.014Z,10.93
2022-12-17T12:21:01.202Z,20.40
2022-12-17T12:23:35.873Z,15.23
2022-12-17T12:26:07.411Z,15.67
2022-12-17T12:28:38.327Z,14.90
2022-12-17T12:31:10.315Z,17.60
2022-12-17T12:33:46.356Z,17.57
2022-12-17T12:36:15.819Z,13.40
2022-12-17T12:38:46.616Z,11.67
2022-12-17T12:41:17.344Z,24.20
2022-12-17T12:43:47.521Z,23.57
2022-12-17T12:46:17.307Z,17.53
2022-12-17T12:48:47.606Z,20.40
2022-12-17T12:51:17.723Z,13.43
2022-12-17T12:53:56.897Z,19.03
2022-12-17T12:56:25.898Z,15.83
2022-12-17T12:59:15.102Z,20.33
2022-12-17T13:02:01.198Z,13.20
2022-12-17T13:04:30.193Z,18.57
2022-12-17T13:06:57.942Z,18.77
2022-12-17T13:09:35.348Z,23.13
2022-12-17T13:12:21.272Z,22.33
2022-12-17T13:14:51.501Z,23.83
2022-12-17T13:17:29.582Z,27.10
2022-12-17T13:20:01.056Z,21.33
2022-12-17T13:22:29.229Z,15.40
2022-12-17T13:25:09.638Z,20.60
2022-12-17T13:27:43.577Z,22.13
2022-12-17T13:30:33.316Z,21.77
2022-12-17T13:33:12.763Z,24.47
2022-12-17T13:35:43.439Z,18.50
2022-12-17T13:38:13.182Z,21.03
2022-12-17T13:40:44.297Z,15.90
2022-12-17T13:43:16.910Z,20.10
2022-12-17T13:45:44.402Z,23.53
2022-12-17T13:48:20.613Z,22.77
2022-12-17T13:50:53.909Z,24.73
2022-12-17T13:53:22.019Z,19.63
2022-12-17T13:55:54.208Z,21.97
2022-12-17T13:58:22.772Z,20.93
2022-12-17T14:00:50.099Z,22.23
2022-12-17T14:03:28.388Z,22.23
2022-12-17T14:06:05.274Z,20.60
2022-12-17T14:08:33.373Z,22.17
2022-12-17T14:11:06.659Z,22.80
2022-12-17T14:13:34.863Z,19.70
2022-12-17T14:16:02.141Z,20.50
2022-12-17T14:18:29.495Z,22.00
2022-12-17T14:20:56.802Z,21.70
2022-12-17T14:23:27.372Z,18.23
2022-12-17T14:25:54.748Z,20.70
2022-12-17T14:28:24.759Z,15.93
2022-12-17T14:31:24.977Z,22.50
2022-12-17T14:33:49.534Z,18.77
2022-12-17T14:36:21.281Z,21.83
2022-12-17T14:38:54.556Z,22.13
2022-12-17T14:41:22.646Z,18.03
2022-12-17T14:43:56.916Z,21.40
2022-12-17T14:46:24.223Z,22.67
2022-12-17T14:48:54.410Z,17.93
2022-12-17T14:51:31.723Z,19.83
2022-12-17T14:54:17.626Z,15.77
2022-12-17T14:56:45.424Z,21.43
2022-12-17T14:59:31.372Z,19.20
2022-12-17T15:02:00.477Z,23.67
2022-12-17T15:04:27.869Z,19.73
2022-12-17T15:06:55.624Z,23.40
2022-12-17T15:09:22.918Z,22.43
2022-12-17T15:11:50.173Z,22.73
2022-12-17T15:14:17.461Z,24.37
2022-12-17T15:16:46.179Z,21.97
2022-12-17T15:19:13.504Z,22.90
2022-12-17T15:21:41.041Z,24.23
2022-12-17T15:24:11.032Z,21.20
2022-12-17T15:26:38.298Z,25.70
2022-12-17T15:29:05.618Z,22.37
2022-12-17T15:31:35.628Z,16.17
2022-12-17T15:34:04.990Z,28.87
2022-12-17T15:36:32.446Z,27.50
2022-12-17T15:38:59.868Z,18.20
2022-12-17T15:41:27.870Z,27.60
2022-12-17T15:43:55.142Z,19.77
2022-12-17T15:46:22.717Z,28.27
2022-12-17T15:48:50.819Z,25.70
2022-12-17T15:51:20.128Z,32.30
2022-12-17T15:53:47.668Z,20.93
2022-12-17T15:56:19.968Z,29.23
2022-12-17T15:58:47.234Z,34.37
2022-12-17T16:01:14.578Z,30.50
2022-12-17T16:03:41.966Z,28.23
2022-12-17T16:06:09.297Z,25.83
2022-12-17T16:08:39.583Z,26.00
2022-12-17T16:11:07.911Z,24.57
2022-12-17T16:13:35.092Z,31.87
2022-12-17T16:16:04.318Z,23.83
2022-12-17T16:18:31.703Z,36.03
2022-12-17T16:21:02.166Z,30.40
2022-12-17T16:23:29.470Z,32.60
2022-12-17T16:25:58.451Z,37.53
2022-12-17T16:28:27.749Z,32.63
2022-12-17T16:30:58.703Z,38.23
2022-12-17T16:33:27.897Z,34.67
2022-12-17T16:35:58.352Z,36.70
2022-12-17T16:38:25.592Z,34.43
2022-12-17T16:40:54.877Z,34.30
2022-12-17T16:43:23.571Z,31.60
2022-12-17T16:45:51.605Z,27.67
2022-12-17T16:48:19.295Z,36.13
2022-12-17T16:50:46.995Z,36.57
2022-12-17T16:53:14.608Z,26.23
2022-12-17T16:55:42.413Z,30.07
2022-12-17T16:58:12.632Z,33.77
2022-12-17T17:00:41.305Z,36.03
2022-12-17T17:03:08.936Z,41.50
2022-12-17T17:05:37.561Z,36.77
2022-12-17T17:08:05.394Z,31.80
2022-12-17T17:10:35.518Z,40.00
2022-12-17T17:13:02.828Z,36.53
2022-12-17T17:15:30.129Z,26.03
2022-12-17T17:18:01.556Z,41.60
2022-12-17T17:20:29.556Z,28.37
2022-12-17T17:22:56.732Z,50.87
2022-12-17T17:25:34.477Z,51.23
2022-12-17T17:28:11.459Z,43.70
2022-12-17T17:30:38.731Z,42.30
2022-12-17T17:33:07.310Z,47.67
2022-12-17T17:35:34.546Z,46.73
2022-12-17T17:38:01.800Z,29.17
2022-12-17T17:40:28.991Z,45.63
2022-12-17T17:42:56.212Z,49.63
2022-12-17T17:45:23.457Z,46.43
2022-12-17T17:47:50.794Z,39.93
2022-12-17T17:50:19.551Z,47.33
2022-12-17T17:52:46.808Z,49.23
2022-12-17T17:55:14.171Z,36.13
2022-12-17T17:57:41.721Z,46.63
2022-12-17T18:00:09.630Z,34.13
2022-12-17T18:02:37.431Z,50.73
2022-12-17T18:05:05.185Z,49.53
2022-12-17T18:07:33.790Z,57.23
2022-12-17T18:10:01.040Z,49.47
2022-12-17T18:12:28.375Z,58.37
2022-12-17T18:17:43.671Z,52.93
2022-12-17T18:20:12.335Z,46.40
2022-12-17T18:22:41.099Z,52.63
2022-12-17T18:25:08.536Z,50.40
2022-12-17T18:27:35.863Z,52.00
2022-12-17T18:30:03.121Z,47.30
2022-12-17T18:32:30.391Z,60.07
2022-12-17T18:34:57.712Z,56.23
2022-12-17T18:37:24.975Z,55.77
2022-12-17T18:39:53.618Z,51.80
2022-12-17T18:42:20.869Z,54.00
2022-12-17T18:44:48.093Z,50.20
2022-12-17T18:47:15.435Z,54.17
2022-12-17T18:49:42.705Z,50.73
2022-12-17T18:52:16.224Z,48.20
2022-12-17T18:54:44.170Z,54.17
2022-12-17T18:57:13.284Z,56.80
2022-12-17T18:59:41.305Z,41.37
2022-12-17T19:02:10.838Z,54.67
2022-12-17T19:04:38.382Z,56.33
2022-12-17T19:07:05.689Z,55.17
2022-12-17T19:09:33.522Z,40.40
2022-12-17T19:12:00.794Z,44.10
2022-12-17T19:14:29.500Z,53.27
2022-12-17T19:16:57.073Z,46.47
2022-12-17T19:19:24.829Z,56.63
2022-12-17T19:21:53.586Z,49.97
2022-12-17T19:24:21.194Z,53.97
2022-12-17T19:26:48.891Z,49.27
2022-12-17T19:29:16.702Z,42.20
2022-12-17T19:31:45.421Z,33.30
2022-12-17T19:34:13.881Z,50.50
2022-12-17T19:36:41.203Z,45.23
2022-12-17T19:39:09.020Z,61.87
2022-12-17T19:41:36.335Z,44.20
2022-12-17T19:44:04.389Z,48.63
2022-12-17T19:46:32.139Z,50.97
2022-12-17T19:49:00.869Z,54.87
2022-12-17T19:51:29.229Z,52.90
2022-12-17T19:53:56.846Z,54.67
2022-12-17T19:56:25.125Z,57.13
2022-12-17T19:58:54.381Z,47.27
2022-12-17T20:01:23.082Z,45.37
2022-12-17T20:03:50.873Z,49.60
2022-12-17T20:06:20.481Z,49.30
2022-12-17T20:08:47.763Z,47.53
2022-12-17T20:11:16.385Z,45.73
2022-12-17T20:13:43.623Z,53.37
2022-12-17T20:16:10.957Z,49.93
2022-12-17T20:18:41.316Z,52.13
2022-12-17T20:21:08.775Z,39.07
2022-12-17T20:23:40.326Z,39.50
2022-12-17T20:26:09.472Z,53.77
2022-12-17T20:28:37.322Z,35.40
2022-12-17T20:31:05.245Z,33.93
2022-12-17T20:33:32.922Z,37.27
2022-12-17T20:36:03.196Z,43.70
2022-12-17T20:38:30.459Z,41.63
2022-12-17T20:40:59.134Z,35.80
2022-12-17T20:43:26.400Z,32.53
2022-12-17T20:45:54.239Z,36.40
2022-12-17T20:48:21.679Z,33.63
2022-12-17T20:50:49.071Z,39.03
2022-12-17T20:53:16.336Z,42.97
2022-12-17T20:55:43.627Z,41.17
2022-12-17T20:58:12.427Z,49.27
2022-12-17T21:00:39.711Z,43.47
2022-12-17T21:03:07.457Z,48.80
2022-12-17T21:05:35.517Z,51.80
2022-12-17T21:08:02.832Z,45.53
2022-12-17T21:10:30.094Z,37.83
2022-12-17T21:12:57.369Z,46.60
2022-12-17T21:15:26.011Z,39.70
2022-12-17T21:17:55.895Z,38.23
2022-12-17T21:20:23.227Z,52.63
2022-12-17T21:22:50.706Z,41.33
2022-12-17T21:25:18.090Z,55.10
2022-12-17T21:27:45.356Z,45.67
2022-12-17T21:30:13.036Z,39.20
2022-12-17T21:32:44.994Z,50.60
2022-12-17T21:35:12.929Z,48.43
2022-12-17T21:37:40.193Z,40.77
2022-12-17T21:40:08.803Z,50.03
2022-12-17T21:42:36.059Z,47.97
2022-12-17T21:45:03.388Z,38.50
2022-12-17T21:47:30.914Z,46.57
2022-12-17T21:49:59.510Z,46.30
2022-12-17T21:52:26.825Z,46.67
2022-12-17T21:54:54.104Z,45.87
2022-12-17T21:57:21.330Z,46.47
2022-12-17T21:59:48.634Z,54.57
2022-12-17T22:02:16.907Z,45.10
2022-12-17T22:04:44.485Z,35.37
2022-12-17T22:07:14.955Z,30.27
2022-12-17T22:09:57.542Z,44.37
2022-12-17T22:12:33.940Z,54.30
2022-12-17T22:15:01.213Z,46.33
2022-12-17T22:17:29.079Z,46.27
2022-12-17T22:19:56.344Z,52.90
2022-12-17T22:22:24.901Z,51.23
2022-12-17T22:24:52.153Z,55.33
2022-12-17T22:27:22.132Z,50.10
2022-12-17T22:29:49.402Z,38.97
2022-12-17T22:32:16.655Z,45.37
2022-12-17T22:36:34.504Z,43.10
2022-12-17T22:41:58.339Z,37.63
2022-12-17T22:44:12.741Z,41.93
2022-12-17T22:44:38.096Z,46.20
2022-12-17T22:45:59.555Z,53.27
2022-12-17T22:48:30.627Z,45.77
2022-12-17T22:51:06.180Z,56.43
2022-12-17T22:53:38.909Z,55.30
2022-12-17T22:56:14.623Z,47.13
2022-12-17T22:58:53.698Z,47.10
2022-12-17T23:01:23.097Z,50.17
2022-12-17T23:03:50.745Z,40.23
2022-12-17T23:06:18.905Z,51.33
2022-12-17T23:08:47.507Z,54.37
2022-12-17T23:11:15.677Z,46.03
2022-12-17T23:13:46.578Z,45.23
2022-12-17T23:16:14.244Z,46.30
2022-12-17T23:18:41.584Z,46.83
2022-12-17T23:21:09.223Z,50.33
2022-12-17T23:23:36.812Z,40.63
2022-12-17T23:26:09.859Z,37.93
2022-12-17T23:28:37.130Z,46.73
2022-12-17T23:31:08.577Z,36.40
2022-12-17T23:33:36.115Z,34.60
2022-12-17T23:36:04.444Z,47.63
2022-12-17T23:38:31.679Z,48.10
2022-12-17T23:41:02.604Z,45.57
2022-12-17T23:43:31.524Z,49.43
2022-12-17T23:45:58.813Z,52.97
2022-12-17T23:48:26.147Z,48.37
2022-12-17T23:50:53.389Z,46.80
2022-12-17T23:53:20.673Z,50.07
2022-12-17T23:55:50.059Z,51.43
2022-12-17T23:58:17.277Z,44.40
